WetterOnline ( https://www.wetteronline.at )

Wetter aktuell Leck

Aktuelles Wetter: Leck (17m)

6-stündlich | Neueste Meldungen
Ortszeit Temperatur Wetter
So, 25.09. 2:00 11.2° C bedeckt
Sa, 24.09. 20:00 12.8° C bedeckt
Sa, 24.09. 14:00 13.9° C bedeckt
Sa, 24.09. 8:00 10.6° C Regen
Sa, 24.09. 2:00 10.7° C bedeckt
Fr, 23.09. 20:00 12.6° C leicht bewölkt
Fr, 23.09. 14:00 15.8° C bedeckt
Fr, 23.09. 8:00 6.9° C bewölkt
Ortszeit Temperatur Wetter
So, 25.09. 3:00 11.1° C bewölkt
So, 25.09. 2:50 11.1° C bewölkt
So, 25.09. 2:40 11.3° C bedeckt
So, 25.09. 2:30 11.1° C bedeckt
So, 25.09. 2:20 11.1° C bedeckt
So, 25.09. 2:10 11.1° C bedeckt
So, 25.09. 2:00 11.2° C bedeckt
So, 25.09. 1:30 11.3° C leichter Regen
So, 25.09. 1:00 11.6° C leichter Regen
So, 25.09. 0:30 11.9° C Sprühregen
So, 25.09. 0:00 12.1° C Sprühregen
Ortszeit Relative Feuchte Sichtweite
So, 25.09. 2:00 93% 40 km
Sa, 24.09. 20:00 85% 35 km
Sa, 24.09. 14:00 82% 30 km
Sa, 24.09. 8:00 97% 2.6 km
Sa, 24.09. 2:00 91% 11 km
Fr, 23.09. 20:00 83% 30 km
Fr, 23.09. 14:00 64% 55 km
Fr, 23.09. 8:00 92% 23 km
Ortszeit Relative Feuchte Sichtweite
So, 25.09. 3:00 93% 35 km
So, 25.09. 2:50 93% -
So, 25.09. 2:40 92% -
So, 25.09. 2:30 94% 35 km
So, 25.09. 2:20 94% -
So, 25.09. 2:10 94% -
So, 25.09. 2:00 93% 40 km
So, 25.09. 1:30 93% 30 km
So, 25.09. 1:00 91% 30 km
So, 25.09. 0:30 89% 30 km
So, 25.09. 0:00 88% 40 km
Ortszeit Niederschlagsmenge Niederschlagsart
So, 25.09. 2:00 0.2 l/m2 in 6 Std. Regen
Sa, 24.09. 20:00 0.3 l/m2 in 12 Std. Regen
Sa, 24.09. 14:00 0.3 l/m2 in 6 Std. Regen
Sa, 24.09. 8:00 0.5 l/m2 in 12 Std. Regen
Sa, 24.09. 2:00 0.0 l/m2 in 6 Std. -
Fr, 23.09. 20:00 0.0 l/m2 in 12 Std. -
Fr, 23.09. 14:00 0.0 l/m2 in 6 Std. -
Fr, 23.09. 8:00 0.0 l/m2 in 12 Std. -
Ortszeit Niederschlagsmenge Niederschlagsart
So, 25.09. 3:00 0.0 l/m2 in 1 Std. -
So, 25.09. 2:50 keine Meldung -
So, 25.09. 2:40 keine Meldung -
So, 25.09. 2:30 0.0 l/m2 in 1 Std. -
So, 25.09. 2:20 keine Meldung -
So, 25.09. 2:10 keine Meldung -
So, 25.09. 2:00 0.1 l/m2 in 1 Std. Regen
So, 25.09. 1:30 0.1 l/m2 in 1 Std. -
So, 25.09. 1:00 0.1 l/m2 in 1 Std. Regen
So, 25.09. 0:30 0.1 l/m2 in 1 Std. -
So, 25.09. 0:00 0.1 l/m2 in 1 Std. Regen
Ortszeit Stärke Spitze Richtung
km/h Bft. km/h Grad Sektor
So, 25.09. 2:00 11 2 14 320° NW
Sa, 24.09. 20:00 9 2 19 320° NW
Sa, 24.09. 14:00 11 2 18 30° NO
Sa, 24.09. 8:00 6 1 7 30° NO
Sa, 24.09. 2:00 7 2 11 100° O
Fr, 23.09. 20:00 6 1 19 190° S
Fr, 23.09. 14:00 11 2 18 190° S
Fr, 23.09. 8:00 9 2 11 110° O
Ortszeit Stärke Spitze Richtung
km/h Bft. km/h Grad Sektor
So, 25.09. 3:00 11 2 18 330° NW
So, 25.09. 2:50 11 2 - 330° NW
So, 25.09. 2:40 11 2 - 330° NW
So, 25.09. 2:30 9 2 13 330° NW
So, 25.09. 2:20 9 2 - 330° NW
So, 25.09. 2:10 9 2 - 330° NW
So, 25.09. 2:00 11 2 14 320° NW
So, 25.09. 1:30 7 2 11 320° NW
So, 25.09. 1:00 7 2 11 320° NW
So, 25.09. 0:30 7 2 11 330° NW
So, 25.09. 0:00 9 2 13 330° NW
Ortszeit Untergrenze Bedeckung Gattung
total tief tief mittel hoch
So, 25.09. 2:00 1800 m 8/8 8/8 - - -
Sa, 24.09. 20:00 1800 m 8/8 8/8 - - -
Sa, 24.09. 14:00 330 m 8/8 8/8 - - -
Sa, 24.09. 8:00 30 m 8/8 8/8 - - -
Sa, 24.09. 2:00 2100 m 8/8 8/8 - - -
Fr, 23.09. 20:00 2700 m 5/8 2/8 - - -
Fr, 23.09. 14:00 3300 m 8/8 8/8 - - -
Fr, 23.09. 8:00 5700 m 8/8 7/8 - - -
Ortszeit Bedeckungsgrad in Achtel und Wolkenuntergrenze
So, 25.09. 3:00 7(1800m) 7(2400m) 8(3300m)
So, 25.09. 2:50 7(1800m) 7(2400m) 8(3300m)
So, 25.09. 2:40 8
So, 25.09. 2:30 7(1800m) 8(2100m)
So, 25.09. 2:20 7(1800m) 8(2100m)
So, 25.09. 2:10 8
So, 25.09. 2:00 2(1800m) 8(2100m)
So, 25.09. 1:30 3(1800m) 8(2100m)
So, 25.09. 1:00 8(1800m)
So, 25.09. 0:30 8(1800m) 8(2400m)
So, 25.09. 0:00 8(1800m)
Ortszeit Luftdruck NN (hPa) Tendenz (hPa in 3 Std.)
So, 25.09. 2:00 1014 - 0,2
Sa, 24.09. 20:00 1013 + 0,3
Sa, 24.09. 14:00 1013 + 0,3
Sa, 24.09. 8:00 1012 + 0,1
Sa, 24.09. 2:00 1013 - 0,6
Fr, 23.09. 20:00 1014 - 0,6
Fr, 23.09. 14:00 1015 - 0,9
Fr, 23.09. 8:00 1017 - 1,0
Ortszeit Luftdruck NN (hPa) Tendenz (hPa in 3 Std.)
So, 25.09. 3:00 1014 - 0,1
So, 25.09. 2:50 1014 keine Meldung
So, 25.09. 2:40 1014 keine Meldung
So, 25.09. 2:30 1014 - 0,1
So, 25.09. 2:20 1014 keine Meldung
So, 25.09. 2:10 1014 keine Meldung
So, 25.09. 2:00 1014 - 0,2
So, 25.09. 1:30 1014 - 0,1
So, 25.09. 1:00 1014 - 0,2
So, 25.09. 0:30 1014 - 0,1
So, 25.09. 0:00 1014 0,0
Ortszeit Schneehöhe (cm)
So, 25.09. 2:00 0
Sa, 24.09. 20:00 0
Sa, 24.09. 14:00 0
Sa, 24.09. 8:00 0
Sa, 24.09. 2:00 0
Fr, 23.09. 20:00 0
Fr, 23.09. 14:00 0
Fr, 23.09. 8:00 0
Ortszeit Schneehöhe (cm)
So, 25.09. 3:00 0
So, 25.09. 2:50 0
So, 25.09. 2:40 0
So, 25.09. 2:30 0
So, 25.09. 2:20 0
So, 25.09. 2:10 0
So, 25.09. 2:00 0
So, 25.09. 1:30 0
So, 25.09. 1:00 0
So, 25.09. 0:30 0
So, 25.09. 0:00 0
Link zu dieser Seite / Seite empfehlen

Das Wetter in ...